sensor_id;sensor_type;location;lat;lon;timestamp;P1;durP1;ratioP1;P2;durP2;ratioP2
57820;SDS011;43649;49.474;8.466;2022-08-20T04:58:50;1.83;;;1.73;;
57820;SDS011;43649;49.474;8.466;2022-08-20T05:01:42;3.53;;;1.67;;
57820;SDS011;43649;49.474;8.466;2022-08-20T05:04:07;1.75;;;1.65;;
57820;SDS011;43649;49.474;8.466;2022-08-20T05:06:32;2.70;;;1.75;;
57820;SDS011;43649;49.474;8.466;2022-08-20T05:08:59;3.70;;;1.70;;
57820;SDS011;43649;49.474;8.466;2022-08-20T05:11:24;13.00;;;1.88;;
57820;SDS011;43649;49.474;8.466;2022-08-20T05:13:51;1.67;;;1.58;;
57820;SDS011;43649;49.474;8.466;2022-08-20T05:16:17;1.75;;;1.75;;
57820;SDS011;43649;49.474;8.466;2022-08-20T05:18:45;1.73;;;1.63;;
57820;SDS011;43649;49.474;8.466;2022-08-20T05:21:11;6.03;;;1.50;;
57820;SDS011;43649;49.474;8.466;2022-08-20T05:23:37;8.50;;;1.65;;
57820;SDS011;43649;49.474;8.466;2022-08-20T05:26:03;1.80;;;1.70;;
57820;SDS011;43649;49.474;8.466;2022-08-20T05:28:29;1.73;;;1.60;;
57820;SDS011;43649;49.474;8.466;2022-08-20T05:30:56;7.45;;;2.05;;
57820;SDS011;43649;49.474;8.466;2022-08-20T05:33:22;1.65;;;1.55;;
57820;SDS011;43649;49.474;8.466;2022-08-20T05:35:48;1.63;;;1.63;;
57820;SDS011;43649;49.474;8.466;2022-08-20T05:38:16;4.10;;;2.30;;
57820;SDS011;43649;49.474;8.466;2022-08-20T05:40:44;1.70;;;1.60;;
57820;SDS011;43649;49.474;8.466;2022-08-20T05:43:10;3.95;;;1.95;;
57820;SDS011;43649;49.474;8.466;2022-08-20T05:45:36;1.38;;;1.38;;
57820;SDS011;43649;49.474;8.466;2022-08-20T05:48:04;1.70;;;1.60;;
57820;SDS011;43649;49.474;8.466;2022-08-20T05:50:30;1.60;;;1.55;;
57820;SDS011;43649;49.474;8.466;2022-08-20T05:52:56;1.80;;;1.65;;
57820;SDS011;43649;49.474;8.466;2022-08-20T05:55:21;3.92;;;2.00;;
57820;SDS011;43649;49.474;8.466;2022-08-20T05:57:47;3.58;;;2.08;;
57820;SDS011;43649;49.474;8.466;2022-08-20T06:00:13;6.75;;;1.73;;
57820;SDS011;43649;49.474;8.466;2022-08-20T06:02:40;3.63;;;1.65;;
57820;SDS011;43649;49.474;8.466;2022-08-20T06:05:07;1.90;;;1.70;;
57820;SDS011;43649;49.474;8.466;2022-08-20T06:07:33;1.58;;;1.55;;
57820;SDS011;43649;49.474;8.466;2022-08-20T06:09:59;2.45;;;1.40;;
57820;SDS011;43649;49.474;8.466;2022-08-20T06:12:25;2.40;;;1.83;;
57820;SDS011;43649;49.474;8.466;2022-08-20T06:14:50;2.53;;;1.63;;
57820;SDS011;43649;49.474;8.466;2022-08-20T06:17:16;6.68;;;1.80;;
57820;SDS011;43649;49.474;8.466;2022-08-20T06:19:43;1.85;;;1.60;;
57820;SDS011;43649;49.474;8.466;2022-08-20T06:22:12;1.45;;;1.35;;
57820;SDS011;43649;49.474;8.466;2022-08-20T06:24:38;2.00;;;1.67;;
57820;SDS011;43649;49.474;8.466;2022-08-20T06:27:04;3.22;;;1.70;;
57820;SDS011;43649;49.474;8.466;2022-08-20T06:29:30;2.53;;;1.63;;
57820;SDS011;43649;49.474;8.466;2022-08-20T06:31:56;2.10;;;1.73;;
57820;SDS011;43649;49.474;8.466;2022-08-20T06:34:22;1.50;;;1.40;;
57820;SDS011;43649;49.474;8.466;2022-08-20T06:36:47;1.80;;;1.65;;
57820;SDS011;43649;49.474;8.466;2022-08-20T06:39:14;4.70;;;1.60;;
57820;SDS011;43649;49.474;8.466;2022-08-20T06:41:40;1.75;;;1.67;;
57820;SDS011;43649;49.474;8.466;2022-08-20T06:44:06;1.38;;;1.30;;
57820;SDS011;43649;49.474;8.466;2022-08-20T06:46:31;3.88;;;1.95;;
57820;SDS011;43649;49.474;8.466;2022-08-20T06:48:57;3.38;;;1.50;;
57820;SDS011;43649;49.474;8.466;2022-08-20T06:51:23;1.63;;;1.40;;
57820;SDS011;43649;49.474;8.466;2022-08-20T06:53:48;6.80;;;1.50;;
57820;SDS011;43649;49.474;8.466;2022-08-20T06:56:15;1.70;;;1.42;;
57820;SDS011;43649;49.474;8.466;2022-08-20T06:58:41;2.72;;;1.45;;
57820;SDS011;43649;49.474;8.466;2022-08-20T07:01:06;6.55;;;1.35;;
57820;SDS011;43649;49.474;8.466;2022-08-20T07:03:33;2.88;;;1.52;;
57820;SDS011;43649;49.474;8.466;2022-08-20T07:05:59;1.45;;;1.35;;
57820;SDS011;43649;49.474;8.466;2022-08-20T07:08:24;1.60;;;1.50;;
57820;SDS011;43649;49.474;8.466;2022-08-20T07:10:50;1.50;;;1.40;;
57820;SDS011;43649;49.474;8.466;2022-08-20T07:13:17;9.73;;;1.38;;
57820;SDS011;43649;49.474;8.466;2022-08-20T07:15:42;4.05;;;1.58;;
57820;SDS011;43649;49.474;8.466;2022-08-20T07:18:09;1.75;;;1.65;;
57820;SDS011;43649;49.474;8.466;2022-08-20T07:20:36;3.42;;;1.40;;
57820;SDS011;43649;49.474;8.466;2022-08-20T07:23:02;2.00;;;1.63;;
57820;SDS011;43649;49.474;8.466;2022-08-20T07:25:28;1.73;;;1.63;;
57820;SDS011;43649;49.474;8.466;2022-08-20T07:27:58;3.80;;;1.70;;
57820;SDS011;43649;49.474;8.466;2022-08-20T07:30:28;3.97;;;1.55;;
57820;SDS011;43649;49.474;8.466;2022-08-20T07:32:54;1.95;;;1.80;;
57820;SDS011;43649;49.474;8.466;2022-08-20T07:35:20;1.63;;;1.52;;
57820;SDS011;43649;49.474;8.466;2022-08-20T07:37:46;2.47;;;1.98;;
57820;SDS011;43649;49.474;8.466;2022-08-20T07:40:15;2.60;;;1.52;;
57820;SDS011;43649;49.474;8.466;2022-08-20T07:42:43;1.70;;;1.60;;
57820;SDS011;43649;49.474;8.466;2022-08-20T07:45:11;8.05;;;1.60;;
57820;SDS011;43649;49.474;8.466;2022-08-20T07:47:41;1.80;;;1.70;;
57820;SDS011;43649;49.474;8.466;2022-08-20T07:50:08;3.42;;;3.13;;
57820;SDS011;43649;49.474;8.466;2022-08-20T07:52:34;2.10;;;2.00;;
57820;SDS011;43649;49.474;8.466;2022-08-20T07:55:00;1.60;;;1.50;;
57820;SDS011;43649;49.474;8.466;2022-08-20T07:57:25;3.60;;;1.52;;
57820;SDS011;43649;49.474;8.466;2022-08-20T07:59:51;1.40;;;1.30;;
57820;SDS011;43649;49.474;8.466;2022-08-20T08:02:16;6.68;;;1.35;;
57820;SDS011;43649;49.474;8.466;2022-08-20T08:04:43;3.72;;;1.60;;
57820;SDS011;43649;49.474;8.466;2022-08-20T08:07:11;2.05;;;1.17;;
57820;SDS011;43649;49.474;8.466;2022-08-20T08:09:36;4.30;;;1.70;;
57820;SDS011;43649;49.474;8.466;2022-08-20T08:12:02;2.92;;;1.35;;
57820;SDS011;43649;49.474;8.466;2022-08-20T08:14:28;1.65;;;1.17;;
57820;SDS011;43649;49.474;8.466;2022-08-20T08:16:59;2.25;;;1.63;;
57820;SDS011;43649;49.474;8.466;2022-08-20T08:19:27;1.95;;;1.40;;
57820;SDS011;43649;49.474;8.466;2022-08-20T08:21:57;1.20;;;1.20;;
57820;SDS011;43649;49.474;8.466;2022-08-20T08:24:22;2.85;;;1.40;;
57820;SDS011;43649;49.474;8.466;2022-08-20T08:26:48;1.73;;;1.15;;
57820;SDS011;43649;49.474;8.466;2022-08-20T08:29:13;2.83;;;1.30;;
57820;SDS011;43649;49.474;8.466;2022-08-20T08:31:39;4.05;;;1.30;;
57820;SDS011;43649;49.474;8.466;2022-08-20T08:34:04;5.57;;;1.60;;
57820;SDS011;43649;49.474;8.466;2022-08-20T08:36:30;2.90;;;1.27;;
57820;SDS011;43649;49.474;8.466;2022-08-20T08:38:57;1.52;;;1.48;;
57820;SDS011;43649;49.474;8.466;2022-08-20T08:41:25;6.35;;;2.55;;
57820;SDS011;43649;49.474;8.466;2022-08-20T08:43:53;1.25;;;1.25;;
57820;SDS011;43649;49.474;8.466;2022-08-20T08:46:24;1.45;;;1.38;;
57820;SDS011;43649;49.474;8.466;2022-08-20T08:48:51;2.05;;;1.20;;
57820;SDS011;43649;49.474;8.466;2022-08-20T08:51:22;1.25;;;0.95;;
57820;SDS011;43649;49.474;8.466;2022-08-20T08:53:54;1.20;;;1.20;;
57820;SDS011;43649;49.474;8.466;2022-08-20T08:56:23;1.23;;;1.13;;
57820;SDS011;43649;49.474;8.466;2022-08-20T08:58:51;1.75;;;1.23;;
57820;SDS011;43649;49.474;8.466;2022-08-20T09:01:17;1.10;;;1.10;;
57820;SDS011;43649;49.474;8.466;2022-08-20T09:03:47;2.42;;;1.20;;
57820;SDS011;43649;49.474;8.466;2022-08-20T09:06:16;2.53;;;0.90;;
57820;SDS011;43649;49.474;8.466;2022-08-20T09:08:44;1.33;;;1.23;;
57820;SDS011;43649;49.474;8.466;2022-08-20T09:11:15;3.72;;;1.10;;
57820;SDS011;43649;49.474;8.466;2022-08-20T09:13:43;1.10;;;1.10;;
57820;SDS011;43649;49.474;8.466;2022-08-20T09:16:12;1.13;;;1.08;;
57820;SDS011;43649;49.474;8.466;2022-08-20T09:18:37;1.30;;;1.20;;
57820;SDS011;43649;49.474;8.466;2022-08-20T09:21:04;2.83;;;0.90;;
57820;SDS011;43649;49.474;8.466;2022-08-20T09:23:29;3.15;;;1.00;;
57820;SDS011;43649;49.474;8.466;2022-08-20T09:25:55;1.20;;;1.10;;
57820;SDS011;43649;49.474;8.466;2022-08-20T09:28:21;0.90;;;0.90;;
57820;SDS011;43649;49.474;8.466;2022-08-20T09:30:48;1.35;;;1.20;;
57820;SDS011;43649;49.474;8.466;2022-08-20T09:33:22;4.82;;;1.15;;
57820;SDS011;43649;49.474;8.466;2022-08-20T09:36:26;1.05;;;1.05;;
57820;SDS011;43649;49.474;8.466;2022-08-20T09:41:43;0.90;;;0.90;;
57820;SDS011;43649;49.474;8.466;2022-08-20T09:44:09;1.10;;;0.80;;
57820;SDS011;43649;49.474;8.466;2022-08-20T09:46:36;0.73;;;0.73;;
57820;SDS011;43649;49.474;8.466;2022-08-20T09:49:01;0.50;;;0.50;;
57820;SDS011;43649;49.474;8.466;2022-08-20T09:51:27;0.45;;;0.45;;
57820;SDS011;43649;49.474;8.466;2022-08-20T09:53:53;0.57;;;0.57;;
57820;SDS011;43649;49.474;8.466;2022-08-20T09:56:18;0.68;;;0.68;;
57820;SDS011;43649;49.474;8.466;2022-08-20T09:58:45;0.40;;;0.40;;
57820;SDS011;43649;49.474;8.466;2022-08-20T10:01:14;1.58;;;0.85;;
57820;SDS011;43649;49.474;8.466;2022-08-20T10:03:43;0.45;;;0.45;;
57820;SDS011;43649;49.474;8.466;2022-08-20T10:06:09;3.30;;;0.60;;
57820;SDS011;43649;49.474;8.466;2022-08-20T10:08:35;0.73;;;0.47;;
57820;SDS011;43649;49.474;8.466;2022-08-20T10:11:01;0.63;;;0.50;;
57820;SDS011;43649;49.474;8.466;2022-08-20T10:13:26;0.25;;;0.25;;
57820;SDS011;43649;49.474;8.466;2022-08-20T10:15:52;0.20;;;0.20;;
57820;SDS011;43649;49.474;8.466;2022-08-20T10:18:17;3.78;;;0.20;;
57820;SDS011;43649;49.474;8.466;2022-08-20T10:20:44;0.25;;;0.25;;
57820;SDS011;43649;49.474;8.466;2022-08-20T10:23:10;3.55;;;0.30;;
57820;SDS011;43649;49.474;8.466;2022-08-20T10:25:35;0.30;;;0.30;;
57820;SDS011;43649;49.474;8.466;2022-08-20T10:28:14;0.65;;;0.63;;
57820;SDS011;43649;49.474;8.466;2022-08-20T10:30:47;5.60;;;0.65;;
57820;SDS011;43649;49.474;8.466;2022-08-20T10:33:15;0.90;;;0.20;;
57820;SDS011;43649;49.474;8.466;2022-08-20T10:36:15;0.40;;;0.40;;
57820;SDS011;43649;49.474;8.466;2022-08-20T10:38:42;0.93;;;0.80;;
57820;SDS011;43649;49.474;8.466;2022-08-20T10:41:08;3.13;;;0.70;;
57820;SDS011;43649;49.474;8.466;2022-08-20T10:43:34;0.68;;;0.68;;
57820;SDS011;43649;49.474;8.466;2022-08-20T10:46:00;2.50;;;0.68;;
57820;SDS011;43649;49.474;8.466;2022-08-20T10:48:25;4.53;;;0.80;;
57820;SDS011;43649;49.474;8.466;2022-08-20T10:50:51;1.48;;;1.00;;
57820;SDS011;43649;49.474;8.466;2022-08-20T10:53:18;3.67;;;0.52;;
57820;SDS011;43649;49.474;8.466;2022-08-20T10:55:44;0.65;;;0.65;;
57820;SDS011;43649;49.474;8.466;2022-08-20T10:58:09;1.02;;;0.55;;
57820;SDS011;43649;49.474;8.466;2022-08-20T11:00:35;0.45;;;0.30;;
57820;SDS011;43649;49.474;8.466;2022-08-20T11:03:01;0.40;;;0.30;;
57820;SDS011;43649;49.474;8.466;2022-08-20T11:05:26;0.63;;;0.63;;
57820;SDS011;43649;49.474;8.466;2022-08-20T11:07:52;0.20;;;0.20;;
57820;SDS011;43649;49.474;8.466;2022-08-20T11:10:19;0.10;;;0.10;;
57820;SDS011;43649;49.474;8.466;2022-08-20T11:12:46;0.13;;;0.13;;
57820;SDS011;43649;49.474;8.466;2022-08-20T11:15:11;0.20;;;0.20;;
57820;SDS011;43649;49.474;8.466;2022-08-20T11:17:39;0.20;;;0.20;;
57820;SDS011;43649;49.474;8.466;2022-08-20T11:20:07;0.20;;;0.20;;
57820;SDS011;43649;49.474;8.466;2022-08-20T11:22:34;0.22;;;0.20;;
57820;SDS011;43649;49.474;8.466;2022-08-20T11:24:59;0.20;;;0.20;;
57820;SDS011;43649;49.474;8.466;2022-08-20T11:27:27;0.25;;;0.25;;
57820;SDS011;43649;49.474;8.466;2022-08-20T11:29:54;2.30;;;0.20;;
57820;SDS011;43649;49.474;8.466;2022-08-20T11:32:22;0.65;;;0.20;;
57820;SDS011;43649;49.474;8.466;2022-08-20T11:34:48;0.20;;;0.20;;
57820;SDS011;43649;49.474;8.466;2022-08-20T11:37:14;0.20;;;0.20;;
57820;SDS011;43649;49.474;8.466;2022-08-20T11:39:41;0.25;;;0.25;;
57820;SDS011;43649;49.474;8.466;2022-08-20T11:42:06;0.20;;;0.20;;
57820;SDS011;43649;49.474;8.466;2022-08-20T11:44:33;0.20;;;0.20;;
57820;SDS011;43649;49.474;8.466;2022-08-20T11:46:59;1.30;;;0.30;;
57820;SDS011;43649;49.474;8.466;2022-08-20T11:49:25;0.15;;;0.15;;
57820;SDS011;43649;49.474;8.466;2022-08-20T11:51:50;0.70;;;0.30;;
57820;SDS011;43649;49.474;8.466;2022-08-20T11:54:15;0.20;;;0.20;;
57820;SDS011;43649;49.474;8.466;2022-08-20T11:56:41;0.40;;;0.15;;
57820;SDS011;43649;49.474;8.466;2022-08-20T11:59:06;0.30;;;0.30;;
57820;SDS011;43649;49.474;8.466;2022-08-20T12:01:33;0.20;;;0.20;;
57820;SDS011;43649;49.474;8.466;2022-08-20T12:03:58;1.45;;;0.30;;
57820;SDS011;43649;49.474;8.466;2022-08-20T12:06:24;0.47;;;0.30;;
57820;SDS011;43649;49.474;8.466;2022-08-20T12:08:49;0.10;;;0.10;;
57820;SDS011;43649;49.474;8.466;2022-08-20T12:11:15;0.25;;;0.20;;
57820;SDS011;43649;49.474;8.466;2022-08-20T12:13:40;0.52;;;0.20;;
57820;SDS011;43649;49.474;8.466;2022-08-20T12:16:06;0.25;;;0.25;;
57820;SDS011;43649;49.474;8.466;2022-08-20T12:18:33;0.30;;;0.30;;
57820;SDS011;43649;49.474;8.466;2022-08-20T12:20:58;0.30;;;0.30;;
57820;SDS011;43649;49.474;8.466;2022-08-20T12:23:24;0.20;;;0.20;;
57820;SDS011;43649;49.474;8.466;2022-08-20T12:25:49;0.20;;;0.20;;
57820;SDS011;43649;49.474;8.466;2022-08-20T12:28:14;0.20;;;0.20;;
57820;SDS011;43649;49.474;8.466;2022-08-20T12:30:40;0.30;;;0.30;;
57820;SDS011;43649;49.474;8.466;2022-08-20T12:33:05;0.70;;;0.30;;
57820;SDS011;43649;49.474;8.466;2022-08-20T12:35:32;0.30;;;0.30;;
57820;SDS011;43649;49.474;8.466;2022-08-20T12:38:00;0.20;;;0.20;;
57820;SDS011;43649;49.474;8.466;2022-08-20T12:40:26;0.28;;;0.25;;
57820;SDS011;43649;49.474;8.466;2022-08-20T12:42:52;0.38;;;0.30;;
57820;SDS011;43649;49.474;8.466;2022-08-20T12:45:18;0.30;;;0.30;;
57820;SDS011;43649;49.474;8.466;2022-08-20T12:47:45;0.40;;;0.40;;
57820;SDS011;43649;49.474;8.466;2022-08-20T12:50:12;0.22;;;0.22;;
57820;SDS011;43649;49.474;8.466;2022-08-20T12:52:41;0.45;;;0.40;;
57820;SDS011;43649;49.474;8.466;2022-08-20T12:55:08;1.08;;;0.38;;
57820;SDS011;43649;49.474;8.466;2022-08-20T12:57:36;0.35;;;0.30;;
57820;SDS011;43649;49.474;8.466;2022-08-20T13:00:04;1.35;;;0.30;;
57820;SDS011;43649;49.474;8.466;2022-08-20T13:02:32;0.30;;;0.30;;
57820;SDS011;43649;49.474;8.466;2022-08-20T13:04:57;1.02;;;0.50;;
57820;SDS011;43649;49.474;8.466;2022-08-20T13:07:23;0.30;;;0.30;;
57820;SDS011;43649;49.474;8.466;2022-08-20T13:09:50;0.70;;;0.70;;
57820;SDS011;43649;49.474;8.466;2022-08-20T13:12:15;1.52;;;0.57;;
57820;SDS011;43649;49.474;8.466;2022-08-20T13:14:41;0.65;;;0.57;;
57820;SDS011;43649;49.474;8.466;2022-08-20T13:17:06;1.02;;;0.57;;
57820;SDS011;43649;49.474;8.466;2022-08-20T13:19:32;0.82;;;0.60;;
57820;SDS011;43649;49.474;8.466;2022-08-20T13:21:59;2.17;;;0.65;;
57820;SDS011;43649;49.474;8.466;2022-08-20T13:24:25;3.83;;;0.65;;
57820;SDS011;43649;49.474;8.466;2022-08-20T13:26:52;0.60;;;0.60;;
57820;SDS011;43649;49.474;8.466;2022-08-20T13:29:17;5.90;;;0.90;;
57820;SDS011;43649;49.474;8.466;2022-08-20T13:31:44;3.13;;;0.65;;
57820;SDS011;43649;49.474;8.466;2022-08-20T13:34:09;6.15;;;0.60;;
57820;SDS011;43649;49.474;8.466;2022-08-20T13:36:35;0.82;;;0.82;;
57820;SDS011;43649;49.474;8.466;2022-08-20T13:39:01;7.50;;;0.63;;
57820;SDS011;43649;49.474;8.466;2022-08-20T13:41:28;0.95;;;0.95;;
57820;SDS011;43649;49.474;8.466;2022-08-20T13:43:55;1.20;;;0.98;;
57820;SDS011;43649;49.474;8.466;2022-08-20T13:46:20;5.85;;;1.27;;
57820;SDS011;43649;49.474;8.466;2022-08-20T13:48:46;2.35;;;1.40;;
57820;SDS011;43649;49.474;8.466;2022-08-20T13:51:11;1.38;;;1.27;;
57820;SDS011;43649;49.474;8.466;2022-08-20T13:53:36;1.50;;;1.40;;
57820;SDS011;43649;49.474;8.466;2022-08-20T13:56:02;3.22;;;1.25;;
57820;SDS011;43649;49.474;8.466;2022-08-20T13:58:28;2.40;;;1.30;;
57820;SDS011;43649;49.474;8.466;2022-08-20T14:00:55;1.48;;;1.40;;
57820;SDS011;43649;49.474;8.466;2022-08-20T14:03:20;1.40;;;1.40;;
57820;SDS011;43649;49.474;8.466;2022-08-20T14:05:45;1.83;;;1.50;;
57820;SDS011;43649;49.474;8.466;2022-08-20T14:08:12;4.35;;;1.20;;
57820;SDS011;43649;49.474;8.466;2022-08-20T14:10:39;2.78;;;1.50;;
57820;SDS011;43649;49.474;8.466;2022-08-20T14:13:04;1.70;;;1.60;;
57820;SDS011;43649;49.474;8.466;2022-08-20T14:15:30;3.95;;;1.45;;
57820;SDS011;43649;49.474;8.466;2022-08-20T14:17:57;5.13;;;1.40;;
57820;SDS011;43649;49.474;8.466;2022-08-20T14:20:23;2.15;;;1.15;;
57820;SDS011;43649;49.474;8.466;2022-08-20T14:22:51;2.38;;;1.45;;
57820;SDS011;43649;49.474;8.466;2022-08-20T14:25:17;3.22;;;1.35;;
57820;SDS011;43649;49.474;8.466;2022-08-20T14:27:44;2.75;;;1.70;;
57820;SDS011;43649;49.474;8.466;2022-08-20T14:30:10;1.75;;;1.17;;
57820;SDS011;43649;49.474;8.466;2022-08-20T14:32:40;1.92;;;1.23;;
57820;SDS011;43649;49.474;8.466;2022-08-20T14:35:07;3.65;;;1.42;;
57820;SDS011;43649;49.474;8.466;2022-08-20T14:37:34;1.73;;;1.40;;
57820;SDS011;43649;49.474;8.466;2022-08-20T14:40:02;1.30;;;1.30;;
57820;SDS011;43649;49.474;8.466;2022-08-20T14:42:29;1.10;;;1.00;;
57820;SDS011;43649;49.474;8.466;2022-08-20T14:44:55;2.15;;;1.08;;
57820;SDS011;43649;49.474;8.466;2022-08-20T14:47:22;1.50;;;1.23;;
57820;SDS011;43649;49.474;8.466;2022-08-20T14:49:51;2.15;;;1.40;;
57820;SDS011;43649;49.474;8.466;2022-08-20T14:52:20;1.25;;;1.17;;
57820;SDS011;43649;49.474;8.466;2022-08-20T14:54:49;1.48;;;1.38;;
57820;SDS011;43649;49.474;8.466;2022-08-20T14:57:16;1.98;;;1.63;;
57820;SDS011;43649;49.474;8.466;2022-08-20T14:59:43;6.03;;;1.52;;
57820;SDS011;43649;49.474;8.466;2022-08-20T15:02:09;1.40;;;1.10;;
57820;SDS011;43649;49.474;8.466;2022-08-20T15:04:37;4.95;;;1.08;;
57820;SDS011;43649;49.474;8.466;2022-08-20T15:07:04;1.23;;;1.20;;
57820;SDS011;43649;49.474;8.466;2022-08-20T15:09:32;2.17;;;0.60;;
57820;SDS011;43649;49.474;8.466;2022-08-20T15:11:59;2.33;;;1.00;;
57820;SDS011;43649;49.474;8.466;2022-08-20T15:14:26;0.80;;;0.80;;
57820;SDS011;43649;49.474;8.466;2022-08-20T15:16:52;2.05;;;1.13;;
57820;SDS011;43649;49.474;8.466;2022-08-20T15:19:18;4.65;;;1.00;;
57820;SDS011;43649;49.474;8.466;2022-08-20T15:21:44;1.77;;;0.95;;
57820;SDS011;43649;49.474;8.466;2022-08-20T15:24:10;0.85;;;0.75;;
57820;SDS011;43649;49.474;8.466;2022-08-20T15:26:37;1.42;;;0.80;;
57820;SDS011;43649;49.474;8.466;2022-08-20T15:29:02;1.30;;;0.80;;
57820;SDS011;43649;49.474;8.466;2022-08-20T15:31:28;1.02;;;0.80;;
57820;SDS011;43649;49.474;8.466;2022-08-20T15:33:53;4.80;;;1.02;;
57820;SDS011;43649;49.474;8.466;2022-08-20T15:36:19;2.40;;;0.77;;
57820;SDS011;43649;49.474;8.466;2022-08-20T15:38:44;1.60;;;0.75;;
57820;SDS011;43649;49.474;8.466;2022-08-20T15:41:10;2.95;;;0.90;;
57820;SDS011;43649;49.474;8.466;2022-08-20T15:43:37;0.63;;;0.63;;
57820;SDS011;43649;49.474;8.466;2022-08-20T15:46:03;1.75;;;1.17;;
57820;SDS011;43649;49.474;8.466;2022-08-20T15:48:30;4.13;;;0.80;;
57820;SDS011;43649;49.474;8.466;2022-08-20T15:51:01;0.63;;;0.63;;
57820;SDS011;43649;49.474;8.466;2022-08-20T15:53:37;1.70;;;1.17;;
57820;SDS011;43649;49.474;8.466;2022-08-20T15:56:11;6.72;;;1.27;;
57820;SDS011;43649;49.474;8.466;2022-08-20T15:58:51;3.75;;;1.08;;
57820;SDS011;43649;49.474;8.466;2022-08-20T16:04:22;1.00;;;1.00;;
57820;SDS011;43649;49.474;8.466;2022-08-20T16:06:59;1.98;;;1.25;;
57820;SDS011;43649;49.474;8.466;2022-08-20T16:09:42;1.60;;;1.08;;
57820;SDS011;43649;49.474;8.466;2022-08-20T16:12:15;3.33;;;0.90;;
57820;SDS011;43649;49.474;8.466;2022-08-20T16:14:46;5.63;;;1.33;;
57820;SDS011;43649;49.474;8.466;2022-08-20T16:17:15;5.03;;;1.05;;
57820;SDS011;43649;49.474;8.466;2022-08-20T16:19:48;1.20;;;1.10;;
57820;SDS011;43649;49.474;8.466;2022-08-20T16:22:20;3.08;;;1.27;;
57820;SDS011;43649;49.474;8.466;2022-08-20T16:24:47;1.52;;;1.05;;
57820;SDS011;43649;49.474;8.466;2022-08-20T16:27:13;2.20;;;1.10;;
57820;SDS011;43649;49.474;8.466;2022-08-20T16:29:52;2.03;;;1.05;;
57820;SDS011;43649;49.474;8.466;2022-08-20T16:34:57;3.58;;;1.27;;
57820;SDS011;43649;49.474;8.466;2022-08-20T16:37:29;2.55;;;1.00;;
57820;SDS011;43649;49.474;8.466;2022-08-20T16:40:02;2.25;;;1.15;;
57820;SDS011;43649;49.474;8.466;2022-08-20T16:42:38;1.52;;;1.30;;
57820;SDS011;43649;49.474;8.466;2022-08-20T16:45:08;6.28;;;1.40;;
57820;SDS011;43649;49.474;8.466;2022-08-20T16:47:37;5.40;;;1.50;;
57820;SDS011;43649;49.474;8.466;2022-08-20T16:50:05;3.53;;;1.40;;
57820;SDS011;43649;49.474;8.466;2022-08-20T16:52:32;5.43;;;1.33;;
57820;SDS011;43649;49.474;8.466;2022-08-20T16:54:58;1.70;;;1.60;;
57820;SDS011;43649;49.474;8.466;2022-08-20T16:57:24;2.80;;;1.55;;
57820;SDS011;43649;49.474;8.466;2022-08-20T16:59:55;3.40;;;1.67;;
57820;SDS011;43649;49.474;8.466;2022-08-20T17:02:24;1.67;;;1.48;;
57820;SDS011;43649;49.474;8.466;2022-08-20T17:04:50;3.70;;;1.42;;
57820;SDS011;43649;49.474;8.466;2022-08-20T17:07:23;2.33;;;1.55;;
57820;SDS011;43649;49.474;8.466;2022-08-20T17:09:50;4.97;;;1.65;;
57820;SDS011;43649;49.474;8.466;2022-08-20T17:12:16;8.13;;;1.95;;
57820;SDS011;43649;49.474;8.466;2022-08-20T17:14:45;2.10;;;1.33;;
57820;SDS011;43649;49.474;8.466;2022-08-20T17:17:22;3.55;;;1.05;;
57820;SDS011;43649;49.474;8.466;2022-08-20T17:19:50;1.17;;;0.95;;
57820;SDS011;43649;49.474;8.466;2022-08-20T17:22:18;1.73;;;1.42;;
57820;SDS011;43649;49.474;8.466;2022-08-20T17:24:44;2.42;;;1.30;;
57820;SDS011;43649;49.474;8.466;2022-08-20T17:27:13;3.90;;;1.50;;
57820;SDS011;43649;49.474;8.466;2022-08-20T17:29:47;8.38;;;1.45;;
57820;SDS011;43649;49.474;8.466;2022-08-20T17:32:15;1.70;;;1.08;;
57820;SDS011;43649;49.474;8.466;2022-08-20T17:34:45;1.92;;;1.23;;
57820;SDS011;43649;49.474;8.466;2022-08-20T17:37:17;3.53;;;1.40;;
57820;SDS011;43649;49.474;8.466;2022-08-20T17:39:45;2.33;;;1.52;;
57820;SDS011;43649;49.474;8.466;2022-08-20T17:42:13;7.00;;;1.33;;
57820;SDS011;43649;49.474;8.466;2022-08-20T17:44:44;1.20;;;1.10;;
57820;SDS011;43649;49.474;8.466;2022-08-20T17:47:15;5.13;;;1.27;;
57820;SDS011;43649;49.474;8.466;2022-08-20T17:49:42;2.38;;;1.13;;
57820;SDS011;43649;49.474;8.466;2022-08-20T17:52:15;1.70;;;1.55;;
57820;SDS011;43649;49.474;8.466;2022-08-20T17:54:44;3.60;;;1.15;;
57820;SDS011;43649;49.474;8.466;2022-08-20T17:57:12;1.67;;;1.50;;
57820;SDS011;43649;49.474;8.466;2022-08-20T17:59:41;1.35;;;1.25;;
57820;SDS011;43649;49.474;8.466;2022-08-20T18:02:10;2.28;;;1.60;;
57820;SDS011;43649;49.474;8.466;2022-08-20T18:04:40;1.10;;;1.05;;
57820;SDS011;43649;49.474;8.466;2022-08-20T18:07:10;1.13;;;1.13;;
57820;SDS011;43649;49.474;8.466;2022-08-20T18:09:43;1.35;;;1.30;;
57820;SDS011;43649;49.474;8.466;2022-08-20T18:12:14;6.28;;;1.70;;
57820;SDS011;43649;49.474;8.466;2022-08-20T18:14:50;9.15;;;1.77;;
57820;SDS011;43649;49.474;8.466;2022-08-20T18:17:36;2.55;;;1.70;;
57820;SDS011;43649;49.474;8.466;2022-08-20T18:20:21;1.50;;;1.40;;
57820;SDS011;43649;49.474;8.466;2022-08-20T18:22:58;1.70;;;1.60;;
57820;SDS011;43649;49.474;8.466;2022-08-20T18:25:30;1.48;;;1.30;;
57820;SDS011;43649;49.474;8.466;2022-08-20T18:28:01;0.95;;;0.90;;
57820;SDS011;43649;49.474;8.466;2022-08-20T18:30:31;2.67;;;1.30;;
57820;SDS011;43649;49.474;8.466;2022-08-20T18:33:01;1.42;;;1.33;;
57820;SDS011;43649;49.474;8.466;2022-08-20T18:35:33;5.20;;;2.17;;
57820;SDS011;43649;49.474;8.466;2022-08-20T18:38:12;2.33;;;1.55;;
57820;SDS011;43649;49.474;8.466;2022-08-20T18:40:50;4.50;;;2.08;;
57820;SDS011;43649;49.474;8.466;2022-08-20T18:43:24;2.55;;;2.08;;
57820;SDS011;43649;49.474;8.466;2022-08-20T18:45:50;3.00;;;2.67;;
57820;SDS011;43649;49.474;8.466;2022-08-20T18:48:18;4.22;;;2.75;;
57820;SDS011;43649;49.474;8.466;2022-08-20T18:50:46;5.25;;;2.22;;
57820;SDS011;43649;49.474;8.466;2022-08-20T18:53:17;2.58;;;2.00;;
57820;SDS011;43649;49.474;8.466;2022-08-20T18:55:45;3.97;;;2.38;;
57820;SDS011;43649;49.474;8.466;2022-08-20T18:58:12;2.10;;;2.00;;
57820;SDS011;43649;49.474;8.466;2022-08-20T19:00:41;4.45;;;2.17;;
57820;SDS011;43649;49.474;8.466;2022-08-20T19:03:10;8.57;;;2.85;;
57820;SDS011;43649;49.474;8.466;2022-08-20T19:05:43;3.45;;;3.13;;
57820;SDS011;43649;49.474;8.466;2022-08-20T19:08:32;3.00;;;2.45;;
57820;SDS011;43649;49.474;8.466;2022-08-20T19:11:09;7.20;;;1.95;;
57820;SDS011;43649;49.474;8.466;2022-08-20T19:13:58;4.95;;;2.30;;
57820;SDS011;43649;49.474;8.466;2022-08-20T19:16:37;7.63;;;3.10;;
57820;SDS011;43649;49.474;8.466;2022-08-20T19:19:11;7.53;;;2.35;;
57820;SDS011;43649;49.474;8.466;2022-08-20T19:21:39;4.93;;;2.28;;
57820;SDS011;43649;49.474;8.466;2022-08-20T19:24:06;6.22;;;2.88;;
57820;SDS011;43649;49.474;8.466;2022-08-20T19:26:38;3.92;;;2.47;;
57820;SDS011;43649;49.474;8.466;2022-08-20T19:29:06;11.63;;;3.20;;
57820;SDS011;43649;49.474;8.466;2022-08-20T19:31:34;3.03;;;2.63;;
57820;SDS011;43649;49.474;8.466;2022-08-20T19:34:01;3.83;;;3.17;;
57820;SDS011;43649;49.474;8.466;2022-08-20T19:36:30;9.02;;;2.83;;
57820;SDS011;43649;49.474;8.466;2022-08-20T19:38:56;6.68;;;3.45;;
57820;SDS011;43649;49.474;8.466;2022-08-20T19:41:26;5.22;;;3.35;;
57820;SDS011;43649;49.474;8.466;2022-08-20T19:43:54;4.03;;;3.55;;
57820;SDS011;43649;49.474;8.466;2022-08-20T19:46:22;3.28;;;2.97;;
57820;SDS011;43649;49.474;8.466;2022-08-20T19:48:55;2.80;;;2.55;;
57820;SDS011;43649;49.474;8.466;2022-08-20T19:51:36;8.13;;;2.85;;
57820;SDS011;43649;49.474;8.466;2022-08-20T19:54:16;4.85;;;2.60;;
57820;SDS011;43649;49.474;8.466;2022-08-20T19:56:44;2.33;;;2.00;;
57820;SDS011;43649;49.474;8.466;2022-08-20T19:59:10;4.95;;;2.20;;